Cincinnati, Ohio
Traffic Map
Current Weather Conditions
Cincinnati, Ohio
Clear
Clear
73°
Feels Like: 73°
Wind Chill: 73° Ceiling: Unl
Heat Index: 73° Visibility: 7mi
Dew Point: 73° Wind: 0mph
Humidity: 100% Direction: ° ()
Pressure: 30.01in Gusts: 0mph
Raw Report DataKLUK 220200Z 00000KT 7SM CLR 23/23 A3001 RMK AO2 T02280228
Traffic Incident Summary
Active as of:
Severity:
Category:
InformationThere was an issue retrieving the traffic information for this location. Please try a different location or try again shortly.
Advertisements
Track Severe Weather on mobile